Nearby METAR Reports - Updated every 30 to 60 minutes

KMYV - Marysville, California, USA
Distance from station: SE 6mi, 9km
Updated: Sun, 18-Feb-2018 2:53pm PST
Overcast
Overcast
 Wind from W
Wind: W 22 mph , 35 km/h, Gust: 29 mph , 46 km/h
Temperature: 57°F , 14°C
Dew Point: 30°F , -1°C
Humidity: 36%
Barometer: 29.82 inHg , 1009.8 hPa
Clouds: Overcast
Visibility: 10 miles , 16 km
Cloud details: Overcast 11000 ft
2018/02/18 22:53 KMYV 182253Z AUTO 27019G25KT 10SM OVC110 14/M01 A2982 RMK AO2 SLP100 T01391011
KCIC - Chico Municipal, California, USA
Distance from station: NNW 46mi, 74km
Updated: Sun, 18-Feb-2018 2:50pm PST
Partly cloudy
Partly cloudy
 Wind from NW
Wind: NW 17 mph , 28 km/h
Temperature: 55°F , 13°C
Dew Point: 25°F , -4°C
Humidity: 31%
Barometer: 29.83 inHg , 1010.2 hPa
Clouds: Partly cloudy
Visibility: 25 miles , 40 km
Cloud details: Partly cloudy 8000 ft
2018/02/18 22:50 KCIC 182250Z 32015KT 25SM SCT080 13/M04 A2983
 
KOVE - Oroville, California, USA
Distance from station: NNE 30mi, 48km
Updated: Sun, 18-Feb-2018 2:53pm PST
Clear
Clear
 Wind from NNW
Wind: NNW 16 mph , 26 km/h, Gust: 28 mph , 44 km/h
Temperature: 57°F , 14°C
Dew Point: 34°F , 1°C
Humidity: 41%
Barometer: 29.83 inHg , 1010.2 hPa
Clouds: Clear
Visibility: 10 miles , 16 km
2018/02/18 22:53 KOVE 182253Z AUTO 33014G24KT 10SM CLR 14/01 A2983 RMK AO2 PK WND 29028/2222 RAE23 SLP102 P0000 T01390011
KSMF - Sacramento/Metro, California, USA
Distance from station: S 30mi, 49km
Updated: Sun, 18-Feb-2018 2:53pm PST
Few Clouds
Few Clouds
 Wind from W
Wind: W 30 mph , 48 km/h, Gust: 37 mph , 59 km/h
Temperature: 57°F , 14°C
Dew Point: 28°F , -2°C
Humidity: 33%
Barometer: 29.85 inHg , 1010.8 hPa
Clouds: Few Clouds
Visibility: 10 miles , 16 km
Cloud details: Few Clouds 7000 ft
2018/02/18 22:53 KSMF 182253Z 26026G32KT 10SM FEW070 14/M02 A2985 RMK AO2 PK WND 26032/2253 SLP106 T01441017